Schwerin, Germany

10:42 PM CEST on July 22, 2014 (GMT +0200)
Klein Rogahn (IMECKLEN20) Elev 168 ft | 53.61 °N, 11.34 °E | Change Station

Current weather conditions updated 43 seconds ago

Clear
Clear
70.3 °F
Feels Like 75 °F
N
1.0
Wind Variable Wind from North
Gusts 2.0 mph

Tomorrow is forecast to be Cooler than today.

Today
High -- | Low -- °F
--% Chance of Precip.
Yesterday
High -- | Low -- °F
Precip. -- in
5:13 AM 9:27 PM
Waning Crescent, 15% visible
Pressure 30.15 in
Visibility -9999.0 miles
Clouds
Heat Index 75 °F
Dew Point 57 °F
Humidity 63%
Rainfall 0.00 in
Snow Depth Not available.
UV Not available.
Pollen Not available.
Air Quality Not available.
Flu Activity Not available.
METAR EDHL 222020Z 04009KT CAVOK 20/16 Q1021 RMK ATIS HOT

More Conditions Fewer Conditions

Pressure 30.15 in
Visibility -9999.0 miles
Clouds
Heat Index 75 °F
Dew Point 57 °F
Humidity 63%
Rainfall 0.00 in
Snow Depth Not available.
UV Not available.
Pollen Not available.
Air Quality Not available.
Flu Activity Not available.
METAR EDHL 222020Z 04009KT CAVOK 20/16 Q1021 RMK ATIS HOT

More Conditions Fewer Conditions

10-Day Weather Forecast

Almanac

Astronomy

Jul. 22, 2014 Rise Set
Actual Time 5:13 AM CEST 9:27 PM CEST
Civil Twilight 4:26 AM CEST 10:14 PM CEST
Nautical Twilight 3:15 AM CEST 11:23 PM CEST
Astronomical Twilight 1:53 AM CEST 12:48 AM CEST
Moon 1:42 AM CEST 5:44 PM CEST
Length of Visible Light 17h 48m
Length of Day
16h 14m
Tomorrow will be 2m 58s shorter.
Waning Crescent, 15% of the Moon is Illuminated
Today
Waning Crescent
Jul 26
New
Aug 3
First Quarter
Aug 10
Full
Aug 17
Last Quarter

Today's Extremes

Country Highs Country Lows

Community

WunderPhotos

Upload Photos

1,736,350 photos uploaded!

Nearby

Snow Depth

Not available.

Earthquake Activity

City Distance Mag. Time & Date
No recent earthquake activity has been reported nearby.
Minimum magnitude displayed is 2.5.

Coastal Water Temperatures

Place Temperature
No Stations Reporting

Nearby Weather Stations

Station Location Temp. Heat Index Dew Point Humidity Wind Precip. Elev Updated Type
Klein Rogahn, Klein Rogahn 70.3 °F 75 °F 57 °F 63% North  at  1.0 mph 0.00 in / hr 168 ft 10:41 PM CEST Normal
Amt Crivitz, G�hren 70.0 °F - 59 °F 68% North  at  0.4 mph 0.00 in / hr 151 ft 10:42 PM CEST Rapid Fire
Wittenburg, Hülseburg 68.7 °F - 56 °F 63% North  at  0.9 mph 0.00 in / hr 157 ft 10:42 PM CEST Rapid Fire
Grevesmühlen 67.5 °F - 62 °F 81% North  at  1.1 mph 0.00 in / hr 135 ft 10:42 PM CEST Rapid Fire
Ratzeburg 69.1 °F - 62 °F 78% NE  at  3.1 mph 0.00 in / hr 98 ft 10:40 PM CEST Normal

Show More Stations Show Fewer Stations